createdAt,value
2022-12-09T00:03:15.428Z,86.44
2022-12-09T00:08:45.864Z,86.69
2022-12-09T00:14:17.086Z,87.3
2022-12-09T00:19:48.944Z,87.98
2022-12-09T00:25:20.705Z,87.73
2022-12-09T00:30:52.269Z,87.76
2022-12-09T00:36:24.201Z,88.04
2022-12-09T00:41:55.852Z,87.65
2022-12-09T00:47:27.649Z,87.33
2022-12-09T00:52:59.142Z,87.09
2022-12-09T00:58:37.714Z,86.88
2022-12-09T01:04:09.755Z,86.55
2022-12-09T01:09:40.765Z,86.94
2022-12-09T01:15:12.653Z,86.98
2022-12-09T01:20:44.298Z,87.33
2022-12-09T01:26:15.950Z,87.05
2022-12-09T01:31:47.525Z,86.76
2022-12-09T01:37:19.518Z,86.6
2022-12-09T01:42:52.131Z,86.45
2022-12-09T01:48:22.685Z,86.69
2022-12-09T01:53:54.587Z,86.69
2022-12-09T01:59:30.902Z,86.98
2022-12-09T02:05:03.482Z,87.15
2022-12-09T02:10:33.984Z,87.26
2022-12-09T02:16:06.119Z,87.07
2022-12-09T02:21:37.602Z,86.79
2022-12-09T02:27:09.379Z,86.87
2022-12-09T02:32:41.156Z,87.73
2022-12-09T02:38:12.910Z,87.67
2022-12-09T02:43:50.737Z,88.06
2022-12-09T02:49:16.450Z,88.48
2022-12-09T02:54:48.254Z,89.01
2022-12-09T03:00:25.861Z,87.96
2022-12-09T03:05:57.717Z,87.94
2022-12-09T03:11:29.803Z,87.54
2022-12-09T03:17:01.985Z,87.01
2022-12-09T03:22:32.800Z,87.3
2022-12-09T03:28:04.642Z,86.99
2022-12-09T03:33:37.249Z,87.2
2022-12-09T03:39:08.057Z,87.27
2022-12-09T03:44:39.808Z,86.88
2022-12-09T03:50:12.352Z,87.5
2022-12-09T03:55:43.834Z,87.45
2022-12-09T04:01:19.924Z,88.08
2022-12-09T04:06:51.100Z,88.74
2022-12-09T04:12:23.061Z,88.07
2022-12-09T04:17:54.882Z,88.11
2022-12-09T04:23:26.802Z,88.56
2022-12-09T04:28:58.011Z,88.64
2022-12-09T04:34:30.328Z,88.97
2022-12-09T04:40:01.742Z,89.13
2022-12-09T04:45:33.862Z,88.91
2022-12-09T04:51:04.993Z,89.24
2022-12-09T04:56:36.888Z,89.38
2022-12-09T05:02:15.007Z,89.74
2022-12-09T05:07:47.534Z,89.57
2022-12-09T05:13:18.836Z,88.91
2022-12-09T05:18:50.768Z,89.03
2022-12-09T05:24:21.794Z,89.14
2022-12-09T05:29:53.775Z,89.46
2022-12-09T05:35:25.567Z,89.38
2022-12-09T05:40:56.913Z,89.05
2022-12-09T05:46:29.042Z,88.99
2022-12-09T05:52:00.297Z,89.16
2022-12-09T05:57:32.420Z,89.37
2022-12-09T06:03:08.780Z,89.31
2022-12-09T06:08:40.886Z,89.54
2022-12-09T06:14:12.693Z,89.8
2022-12-09T06:19:43.838Z,89.97
2022-12-09T06:25:15.706Z,89.8
2022-12-09T06:30:47.105Z,89.87
2022-12-09T06:36:19.056Z,89.67
2022-12-09T06:41:50.458Z,90.27
2022-12-09T06:47:22.229Z,90.1
2022-12-09T06:52:53.876Z,90.29
2022-12-09T06:58:25.530Z,90.46
2022-12-09T07:04:02.056Z,90.6
2022-12-09T07:09:34.038Z,90.83
2022-12-09T07:15:06.607Z,90.69
2022-12-09T07:20:37.343Z,90.58
2022-12-09T07:26:08.773Z,90.77
2022-12-09T07:31:40.583Z,90.86
2022-12-09T07:37:12.637Z,91.58
2022-12-09T07:42:44.088Z,91.15
2022-12-09T07:48:16.022Z,92.29
2022-12-09T07:53:47.828Z,92.52
2022-12-09T07:59:19.092Z,92.67
2022-12-09T08:04:55.243Z,92.56
2022-12-09T08:10:28.018Z,92.97
2022-12-09T08:15:58.798Z,93.38
2022-12-09T08:21:31.244Z,94.46
2022-12-09T08:27:02.705Z,94.47
2022-12-09T08:32:34.259Z,95.41
2022-12-09T08:38:05.441Z,96.02
2022-12-09T08:43:37.485Z,96.27
2022-12-09T08:49:09.152Z,96.27
2022-12-09T08:54:40.734Z,95.63
2022-12-09T09:00:13.540Z,95.74
2022-12-09T09:05:51.327Z,94.76
2022-12-09T09:11:22.412Z,93.55
2022-12-09T09:16:54.418Z,94.14
2022-12-09T09:22:25.499Z,93.35
2022-12-09T09:27:57.782Z,94.17
2022-12-09T09:33:29.925Z,94.94
2022-12-09T09:39:00.909Z,94.77
2022-12-09T09:44:33.123Z,93.52
2022-12-09T09:50:04.672Z,93.46
2022-12-09T09:55:36.130Z,93.13
2022-12-09T10:01:08.624Z,94.19
2022-12-09T10:06:44.480Z,94.75
2022-12-09T10:12:16.595Z,95.26
2022-12-09T10:17:47.846Z,93.82
2022-12-09T10:23:20.036Z,94.5
2022-12-09T10:28:50.914Z,94.2
2022-12-09T10:34:22.957Z,92.99
2022-12-09T10:39:54.257Z,92.24
2022-12-09T10:50:57.882Z,91.76
2022-12-09T10:56:29.869Z,91.83
2022-12-09T11:02:02.772Z,91.82
2022-12-09T11:07:37.207Z,92.29
2022-12-09T11:13:09.120Z,91.91
2022-12-09T11:18:41.117Z,91.79
2022-12-09T11:24:12.601Z,91.96
2022-12-09T11:29:44.889Z,92.54
2022-12-09T11:35:16.237Z,92.33
2022-12-09T11:40:47.802Z,92.36
2022-12-09T11:46:19.226Z,93.31
2022-12-09T11:51:50.776Z,92.68
2022-12-09T11:57:22.546Z,92.14
2022-12-09T12:02:54.334Z,93.1
2022-12-09T12:08:32.420Z,92.45
2022-12-09T12:14:04.249Z,91.91
2022-12-09T12:19:35.944Z,91.59
2022-12-09T12:25:17.287Z,91.25
2022-12-09T12:30:39.301Z,91.16
2022-12-09T12:36:10.851Z,92.16
2022-12-09T12:41:42.633Z,91.81
2022-12-09T12:47:14.361Z,93.89
2022-12-09T12:52:56.995Z,94.78
2022-12-09T12:58:17.842Z,94.43
2022-12-09T13:03:49.572Z,94.79
2022-12-09T13:09:27.552Z,94.66
2022-12-09T13:14:59.318Z,95.05
2022-12-09T13:20:31.009Z,96.73
2022-12-09T13:26:02.834Z,95.73
2022-12-09T13:31:34.452Z,95.24
2022-12-09T13:37:06.159Z,95.65
2022-12-09T13:42:46.845Z,94.93
2022-12-09T13:48:17.605Z,95.19
2022-12-09T13:53:46.391Z,95.68
2022-12-09T13:59:12.936Z,97.06
2022-12-09T14:04:44.861Z,96.48
2022-12-09T14:10:20.900Z,97.55
2022-12-09T14:15:52.873Z,96.72
2022-12-09T14:21:24.343Z,96.68
2022-12-09T14:26:56.184Z,96.45
2022-12-09T14:32:28.127Z,97.62
2022-12-09T14:37:59.692Z,97.84
2022-12-09T14:43:31.275Z,97.13
2022-12-09T14:49:03.045Z,96.75
2022-12-09T14:54:34.754Z,97.44
2022-12-09T15:00:07.374Z,97.76
2022-12-09T15:05:38.158Z,98.14
2022-12-09T15:11:14.237Z,97.28
2022-12-09T15:16:51.083Z,97.67
2022-12-09T15:22:17.639Z,99.28
2022-12-09T15:27:49.429Z,99.52
2022-12-09T15:33:21.122Z,99.28
2022-12-09T15:38:52.912Z,99.43
2022-12-09T15:44:25.005Z,99.66
2022-12-09T15:49:56.299Z,99.21
2022-12-09T15:55:27.991Z,98.58
2022-12-09T16:00:59.871Z,98.33
2022-12-09T16:06:31.512Z,98.59
2022-12-09T16:12:07.707Z,98.02
2022-12-09T16:17:39.378Z,98.05
2022-12-09T16:23:11.098Z,97.47
2022-12-09T16:28:42.918Z,98.19
2022-12-09T16:34:15.302Z,98.34
2022-12-09T16:39:46.414Z,97.55
2022-12-09T16:45:18.101Z,97.09
2022-12-09T16:50:49.910Z,97.07
2022-12-09T16:56:21.528Z,97.38
2022-12-09T17:01:53.450Z,98.41
2022-12-09T17:07:24.797Z,98.1
2022-12-09T17:13:03.199Z,97.6
2022-12-09T17:18:34.951Z,97.32
2022-12-09T17:24:06.618Z,98.28
2022-12-09T17:29:38.329Z,97.33
2022-12-09T17:35:13.294Z,97.57
2022-12-09T17:40:41.869Z,97.6
2022-12-09T17:46:13.575Z,97.63
2022-12-09T17:51:45.324Z,98.45
2022-12-09T17:57:16.957Z,99.0
2022-12-09T18:02:48.824Z,99.43
2022-12-09T18:08:20.381Z,99.5
2022-12-09T18:13:58.309Z,99.6
2022-12-09T18:19:30.070Z,99.98
2022-12-09T18:25:01.923Z,99.56
2022-12-09T18:30:33.688Z,99.93
2022-12-09T18:36:05.233Z,100.0
2022-12-09T18:41:36.752Z,100.0
2022-12-09T18:47:08.592Z,99.63
2022-12-09T18:52:40.389Z,99.35
2022-12-09T18:58:12.045Z,98.71
2022-12-09T19:03:43.954Z,99.52
2022-12-09T19:09:15.604Z,98.95
2022-12-09T19:14:52.241Z,99.27
2022-12-09T19:20:23.436Z,99.14
2022-12-09T19:25:55.297Z,98.84
2022-12-09T19:31:27.122Z,99.12
2022-12-09T19:36:58.705Z,99.2
2022-12-09T19:42:30.245Z,99.14
2022-12-09T19:48:02.221Z,98.96
2022-12-09T19:53:33.938Z,99.28
2022-12-09T19:59:05.519Z,99.17
2022-12-09T20:04:50.542Z,99.23
2022-12-09T20:10:09.396Z,98.95
2022-12-09T20:15:45.054Z,98.17
2022-12-09T20:21:16.898Z,98.44
2022-12-09T20:26:48.616Z,99.01
2022-12-09T20:32:20.157Z,98.8
2022-12-09T20:37:51.904Z,98.75
2022-12-09T20:43:23.873Z,99.08
2022-12-09T20:48:55.358Z,99.03
2022-12-09T20:54:27.563Z,99.1
2022-12-09T20:59:58.955Z,99.1
2022-12-09T21:05:30.742Z,99.12
2022-12-09T21:11:02.397Z,98.51
2022-12-09T21:16:38.794Z,98.9
2022-12-09T21:22:10.384Z,99.17
2022-12-09T21:27:42.036Z,99.34
2022-12-09T21:33:13.724Z,99.51
2022-12-09T21:38:45.471Z,99.53
2022-12-09T21:44:17.270Z,99.71
2022-12-09T21:49:48.985Z,99.69
2022-12-09T21:55:20.676Z,99.65
2022-12-09T22:00:53.711Z,99.58
2022-12-09T22:06:24.163Z,99.52
2022-12-09T22:11:55.890Z,99.68
2022-12-09T22:17:32.060Z,99.11
2022-12-09T22:23:03.848Z,99.57
2022-12-09T22:28:35.497Z,99.04
2022-12-09T22:34:07.244Z,99.37
2022-12-09T22:39:38.952Z,99.69
2022-12-09T22:45:10.666Z,99.44
2022-12-09T22:50:42.236Z,99.29
2022-12-09T22:56:14.028Z,99.22
2022-12-09T23:01:45.663Z,99.3
2022-12-09T23:07:17.457Z,99.48
2022-12-09T23:12:49.128Z,99.41
2022-12-09T23:18:25.201Z,99.2
2022-12-09T23:23:57.072Z,99.31
2022-12-09T23:29:28.693Z,99.46
2022-12-09T23:35:07.530Z,99.04
2022-12-09T23:40:32.125Z,99.4
2022-12-09T23:46:03.956Z,98.96
2022-12-09T23:51:35.582Z,99.27
2022-12-09T23:57:07.249Z,98.77
